createdAt,value
2023-03-29T00:04:34.725Z,1.58
2023-03-29T00:07:05.064Z,1.70
2023-03-29T00:09:35.892Z,1.05
2023-03-29T00:12:02.867Z,1.42
2023-03-29T00:19:25.949Z,2.03
2023-03-29T00:21:52.867Z,1.63
2023-03-29T00:24:21.225Z,1.42
2023-03-29T00:26:48.764Z,1.45
2023-03-29T00:29:16.711Z,1.60
2023-03-29T00:31:45.940Z,1.70
2023-03-29T00:34:12.952Z,1.48
2023-03-29T00:36:40.362Z,1.42
2023-03-29T00:39:07.379Z,1.27
2023-03-29T00:41:36.910Z,1.58
2023-03-29T00:44:04.577Z,1.35
2023-03-29T00:46:32.398Z,1.20
2023-03-29T00:49:07.236Z,1.33
2023-03-29T00:51:36.690Z,1.50
2023-03-29T00:54:06.337Z,1.73
2023-03-29T00:56:37.534Z,2.10
2023-03-29T00:59:16.330Z,1.98
2023-03-29T01:01:50.399Z,1.42
2023-03-29T01:04:42.678Z,1.70
2023-03-29T01:07:18.767Z,1.45
2023-03-29T01:09:53.242Z,1.50
2023-03-29T01:12:25.230Z,1.70
2023-03-29T01:14:58.582Z,1.70
2023-03-29T01:17:26.019Z,1.65
2023-03-29T01:20:07.941Z,1.60
2023-03-29T01:23:01.550Z,1.30
2023-03-29T01:25:40.443Z,1.23
2023-03-29T01:28:17.440Z,1.48
2023-03-29T01:30:52.037Z,1.60
2023-03-29T01:33:23.705Z,2.20
2023-03-29T01:36:08.166Z,1.25
2023-03-29T01:38:39.703Z,1.80
2023-03-29T01:41:07.962Z,1.63
2023-03-29T01:43:34.870Z,1.40
2023-03-29T01:46:47.192Z,1.70
2023-03-29T01:49:23.671Z,1.55
2023-03-29T01:52:01.524Z,1.73
2023-03-29T01:54:39.471Z,1.77
2023-03-29T01:57:10.221Z,1.67
2023-03-29T01:59:42.496Z,1.40
2023-03-29T02:02:14.665Z,1.70
2023-03-29T02:04:48.124Z,1.70
2023-03-29T02:07:17.510Z,1.80
2023-03-29T02:09:45.293Z,1.63
2023-03-29T02:12:13.510Z,1.92
2023-03-29T02:14:40.526Z,2.00
2023-03-29T02:17:19.734Z,1.70
2023-03-29T02:19:52.024Z,2.40
2023-03-29T02:22:36.653Z,1.92
2023-03-29T02:25:06.384Z,1.40
2023-03-29T02:27:33.511Z,2.25
2023-03-29T02:32:51.775Z,1.70
2023-03-29T02:35:27.678Z,1.75
2023-03-29T02:37:57.437Z,2.10
2023-03-29T02:40:26.111Z,2.08
2023-03-29T02:42:55.987Z,1.40
2023-03-29T02:45:24.143Z,1.90
2023-03-29T02:47:55.387Z,1.77
2023-03-29T02:50:26.269Z,1.83
2023-03-29T02:52:59.422Z,1.80
2023-03-29T02:55:34.497Z,1.88
2023-03-29T02:58:08.027Z,2.50
2023-03-29T03:00:44.838Z,2.70
2023-03-29T03:03:13.230Z,2.10
2023-03-29T03:05:40.552Z,3.03
2023-03-29T03:10:35.251Z,2.50
2023-03-29T03:13:04.433Z,2.20
2023-03-29T03:15:37.419Z,1.85
2023-03-29T03:18:04.634Z,1.73
2023-03-29T03:20:33.345Z,2.20
2023-03-29T03:23:03.367Z,1.58
2023-03-29T03:25:31.673Z,2.42
2023-03-29T03:27:58.668Z,1.75
2023-03-29T03:30:25.572Z,2.28
2023-03-29T03:33:11.871Z,1.80
2023-03-29T03:36:14.058Z,2.13
2023-03-29T03:38:44.215Z,1.95
2023-03-29T03:41:11.809Z,1.88
2023-03-29T03:43:41.590Z,1.88
2023-03-29T03:46:08.721Z,2.17
2023-03-29T03:51:17.589Z,1.67
2023-03-29T03:53:45.129Z,2.47
2023-03-29T03:59:01.114Z,1.97
2023-03-29T04:01:31.220Z,2.50
2023-03-29T04:04:04.905Z,3.38
2023-03-29T04:06:32.969Z,4.00
2023-03-29T04:09:18.638Z,3.80
2023-03-29T04:11:53.213Z,2.92
2023-03-29T04:14:20.645Z,2.67
2023-03-29T04:17:09.061Z,4.57
2023-03-29T04:19:53.127Z,3.83
2023-03-29T04:22:20.413Z,2.63
2023-03-29T04:24:48.576Z,2.22
2023-03-29T04:27:44.993Z,2.50
2023-03-29T04:30:22.972Z,2.83
2023-03-29T04:33:10.419Z,3.10
2023-03-29T04:35:40.172Z,3.10
2023-03-29T04:38:11.645Z,2.45
2023-03-29T04:40:40.875Z,2.58
2023-03-29T04:43:29.866Z,2.28
2023-03-29T04:46:10.669Z,2.45
2023-03-29T04:49:16.583Z,2.35
2023-03-29T04:51:47.825Z,2.30
2023-03-29T04:54:17.765Z,1.90
2023-03-29T04:57:08.291Z,2.15
2023-03-29T04:59:37.374Z,1.95
2023-03-29T05:02:15.018Z,2.17
2023-03-29T05:04:45.084Z,2.35
2023-03-29T05:07:15.412Z,2.20
2023-03-29T05:09:42.648Z,2.33
2023-03-29T05:12:11.117Z,3.15
2023-03-29T05:14:52.042Z,2.33
2023-03-29T05:17:20.940Z,4.53
2023-03-29T05:19:49.042Z,3.58
2023-03-29T05:22:16.733Z,2.88
2023-03-29T05:24:43.931Z,2.80
2023-03-29T05:27:15.572Z,2.53
2023-03-29T05:29:45.049Z,2.25
2023-03-29T05:32:24.180Z,2.92
2023-03-29T05:34:51.577Z,2.33
2023-03-29T05:37:19.058Z,2.42
2023-03-29T05:39:55.026Z,2.30
2023-03-29T05:42:38.013Z,2.03
2023-03-29T05:45:08.774Z,2.42
2023-03-29T05:47:36.102Z,2.60
2023-03-29T05:50:03.436Z,2.33
2023-03-29T05:52:30.821Z,2.50
2023-03-29T05:54:57.721Z,2.03
2023-03-29T05:57:24.738Z,2.75
2023-03-29T06:02:18.857Z,3.55
2023-03-29T06:04:51.641Z,2.78
2023-03-29T06:07:24.550Z,2.95
2023-03-29T06:10:29.844Z,2.50
2023-03-29T06:13:11.910Z,2.20
2023-03-29T06:15:39.220Z,2.08
2023-03-29T06:18:10.798Z,2.10
2023-03-29T06:20:38.547Z,2.53
2023-03-29T06:23:11.757Z,2.38
2023-03-29T06:28:06.199Z,3.40
2023-03-29T06:30:34.353Z,3.05
2023-03-29T06:33:01.502Z,3.50
2023-03-29T06:35:48.569Z,4.55
2023-03-29T06:38:20.831Z,4.47
2023-03-29T06:41:14.866Z,3.97
2023-03-29T06:43:57.851Z,3.97
2023-03-29T06:46:31.854Z,4.95
2023-03-29T06:49:01.863Z,4.78
2023-03-29T06:51:57.076Z,9.85
2023-03-29T06:54:24.341Z,8.32
2023-03-29T06:57:00.180Z,4.22
2023-03-29T06:59:28.957Z,4.53
2023-03-29T07:02:09.979Z,5.18
2023-03-29T07:05:11.426Z,4.70
2023-03-29T07:07:56.734Z,4.03
2023-03-29T07:10:42.767Z,4.10
2023-03-29T07:13:28.384Z,4.05
2023-03-29T07:15:58.549Z,4.07
2023-03-29T07:18:41.643Z,4.57
2023-03-29T07:21:12.371Z,4.25
2023-03-29T07:23:40.770Z,4.10
2023-03-29T07:26:08.121Z,3.90
2023-03-29T07:28:37.453Z,4.60
2023-03-29T07:31:07.399Z,4.10
2023-03-29T07:33:40.919Z,4.32
2023-03-29T07:36:11.109Z,3.67
2023-03-29T07:38:38.561Z,3.75
2023-03-29T07:41:13.350Z,3.55
2023-03-29T07:43:50.030Z,4.10
2023-03-29T07:46:20.989Z,4.15
2023-03-29T07:48:49.405Z,4.10
2023-03-29T07:53:45.797Z,4.30
2023-03-29T07:56:44.868Z,4.30
2023-03-29T07:59:22.551Z,3.65
2023-03-29T08:02:02.214Z,3.35
2023-03-29T08:04:34.055Z,3.83
2023-03-29T08:07:10.049Z,3.08
2023-03-29T08:09:59.859Z,3.15
2023-03-29T08:12:59.154Z,3.30
2023-03-29T08:15:53.172Z,3.58
2023-03-29T08:18:27.494Z,3.10
2023-03-29T08:23:21.462Z,3.53
2023-03-29T08:26:01.328Z,3.85
2023-03-29T08:28:28.482Z,3.53
2023-03-29T08:30:55.960Z,2.47
2023-03-29T08:33:22.858Z,3.75
2023-03-29T08:38:31.064Z,3.45
2023-03-29T08:40:58.168Z,3.15
2023-03-29T08:44:00.262Z,3.55
2023-03-29T08:46:53.469Z,3.30
2023-03-29T08:49:28.616Z,3.70
2023-03-29T08:52:00.249Z,2.65
2023-03-29T08:54:33.192Z,4.45
2023-03-29T08:57:28.912Z,3.63
2023-03-29T09:00:05.124Z,3.72
2023-03-29T09:02:36.087Z,3.50
2023-03-29T09:05:31.113Z,3.90
2023-03-29T09:08:25.148Z,3.95
2023-03-29T09:11:00.744Z,3.88
2023-03-29T09:14:04.423Z,4.55
2023-03-29T09:17:02.548Z,3.95
2023-03-29T09:19:50.934Z,3.60
2023-03-29T09:22:48.924Z,3.83
2023-03-29T09:25:24.898Z,4.13
2023-03-29T09:28:10.031Z,4.10
2023-03-29T09:31:06.345Z,3.78
2023-03-29T09:33:42.956Z,4.63
2023-03-29T09:36:31.725Z,4.30
2023-03-29T09:38:59.622Z,3.78
2023-03-29T09:41:58.967Z,3.95
2023-03-29T09:44:35.925Z,3.80
2023-03-29T09:47:18.732Z,4.03
2023-03-29T09:49:50.226Z,3.78
2023-03-29T09:52:19.999Z,4.10
2023-03-29T09:55:03.676Z,4.90
2023-03-29T09:57:46.115Z,4.25
2023-03-29T10:00:16.943Z,4.65
2023-03-29T10:02:52.797Z,4.15
2023-03-29T10:05:26.313Z,4.18
2023-03-29T10:07:57.501Z,4.05
2023-03-29T10:10:30.088Z,4.03
2023-03-29T10:13:04.249Z,3.85
2023-03-29T10:15:31.800Z,3.30
2023-03-29T10:18:00.797Z,3.05
2023-03-29T10:20:28.142Z,4.20
2023-03-29T10:22:57.583Z,3.85
2023-03-29T10:25:32.980Z,3.58
2023-03-29T10:28:18.657Z,4.00
2023-03-29T10:30:52.660Z,3.60
2023-03-29T10:33:24.092Z,3.90
2023-03-29T10:35:51.558Z,3.70
2023-03-29T10:38:21.034Z,4.28
2023-03-29T10:40:53.094Z,3.45
2023-03-29T10:43:20.128Z,3.15
2023-03-29T10:45:52.487Z,3.08
2023-03-29T10:48:34.662Z,3.03
2023-03-29T10:51:03.100Z,3.83
2023-03-29T10:53:33.700Z,3.13
2023-03-29T10:56:23.040Z,3.95
2023-03-29T10:59:05.665Z,4.15
2023-03-29T11:02:10.383Z,4.38
2023-03-29T11:04:59.218Z,3.38
2023-03-29T11:07:31.503Z,3.97
2023-03-29T11:10:29.232Z,4.07
2023-03-29T11:13:18.696Z,3.72
2023-03-29T11:16:30.026Z,3.67
2023-03-29T11:19:29.958Z,3.53
2023-03-29T11:22:09.994Z,3.65
2023-03-29T11:25:33.826Z,3.60
2023-03-29T11:28:42.822Z,3.55
2023-03-29T11:31:13.315Z,3.70
2023-03-29T11:34:14.415Z,3.83
2023-03-29T11:36:44.605Z,3.47
2023-03-29T11:39:28.760Z,3.72
2023-03-29T11:42:03.703Z,3.55
2023-03-29T11:44:31.759Z,3.20
2023-03-29T11:47:01.538Z,3.13
2023-03-29T11:49:37.568Z,3.78
2023-03-29T11:52:30.934Z,3.55
2023-03-29T11:55:04.306Z,3.40
2023-03-29T11:57:37.619Z,3.53
2023-03-29T12:00:15.830Z,3.50
2023-03-29T12:03:15.067Z,3.15
2023-03-29T12:06:06.437Z,4.05
2023-03-29T12:08:46.164Z,3.58
2023-03-29T12:11:29.653Z,4.63
2023-03-29T12:14:14.595Z,4.03
2023-03-29T12:16:49.862Z,3.97
2023-03-29T12:19:38.652Z,3.42
2023-03-29T12:22:09.161Z,3.35
2023-03-29T12:24:43.385Z,3.40
2023-03-29T12:27:26.301Z,3.10
2023-03-29T12:30:08.677Z,4.25
2023-03-29T12:32:54.208Z,3.15
2023-03-29T12:36:01.564Z,3.80
2023-03-29T12:38:48.188Z,4.03
2023-03-29T12:41:37.534Z,3.63
2023-03-29T12:44:41.603Z,4.88
2023-03-29T12:47:24.421Z,3.30
2023-03-29T12:50:01.418Z,3.20
2023-03-29T12:52:34.232Z,3.00
2023-03-29T12:55:17.058Z,3.40
2023-03-29T12:58:07.251Z,3.35
2023-03-29T13:00:45.035Z,3.30
2023-03-29T13:04:01.584Z,3.85
2023-03-29T13:06:52.236Z,4.07
2023-03-29T13:09:23.408Z,3.33
2023-03-29T13:12:13.075Z,3.20
2023-03-29T13:14:46.467Z,4.32
2023-03-29T13:17:26.002Z,3.67
2023-03-29T13:20:09.391Z,3.95
2023-03-29T13:22:59.675Z,4.22
2023-03-29T13:25:54.359Z,3.47
2023-03-29T13:28:56.616Z,3.40
2023-03-29T13:31:34.884Z,3.40
2023-03-29T13:34:20.355Z,3.00
2023-03-29T13:36:50.052Z,3.30
2023-03-29T13:39:29.533Z,3.30
2023-03-29T13:42:16.653Z,3.17
2023-03-29T13:44:46.180Z,3.00
2023-03-29T13:47:48.935Z,3.13
2023-03-29T13:51:01.122Z,3.97
2023-03-29T13:53:34.926Z,3.38
2023-03-29T13:56:03.237Z,2.70
2023-03-29T13:58:42.797Z,3.45
2023-03-29T14:01:10.920Z,3.17
2023-03-29T14:03:44.935Z,3.40
2023-03-29T14:06:17.598Z,3.42
2023-03-29T14:08:45.369Z,3.55
2023-03-29T14:11:24.394Z,3.22
2023-03-29T14:14:07.544Z,2.88
2023-03-29T14:16:39.972Z,3.03
2023-03-29T14:19:18.541Z,3.20
2023-03-29T14:21:46.366Z,2.90
2023-03-29T14:24:20.848Z,3.03
2023-03-29T14:26:48.003Z,2.38
2023-03-29T14:29:15.968Z,2.72
2023-03-29T14:31:43.329Z,3.10
2023-03-29T14:34:18.389Z,2.58
2023-03-29T14:36:48.977Z,2.53
2023-03-29T14:39:25.302Z,3.95
2023-03-29T14:41:54.680Z,2.95
2023-03-29T14:44:24.290Z,2.22
2023-03-29T14:46:51.695Z,3.08
2023-03-29T14:49:20.619Z,3.10
2023-03-29T14:51:49.266Z,3.28
2023-03-29T14:54:29.568Z,3.17
2023-03-29T14:56:56.775Z,2.83
2023-03-29T14:59:32.049Z,2.55
2023-03-29T15:01:59.047Z,2.80
2023-03-29T15:04:34.034Z,2.20
2023-03-29T15:07:02.685Z,2.78
2023-03-29T15:09:34.068Z,2.40
2023-03-29T15:12:02.908Z,2.05
2023-03-29T15:14:37.070Z,2.80
2023-03-29T15:17:39.102Z,2.22
2023-03-29T15:20:23.291Z,2.10
2023-03-29T15:23:01.426Z,2.28
2023-03-29T15:25:45.881Z,2.22
2023-03-29T15:28:32.451Z,2.42
2023-03-29T15:31:08.072Z,3.15
2023-03-29T15:33:39.529Z,2.90
2023-03-29T15:36:11.672Z,2.38
2023-03-29T15:38:44.620Z,2.38
2023-03-29T15:41:14.397Z,2.22
2023-03-29T15:43:42.453Z,2.13
2023-03-29T15:46:14.301Z,2.13
2023-03-29T15:48:41.740Z,2.53
2023-03-29T15:51:12.550Z,2.30
2023-03-29T15:53:40.414Z,2.35
2023-03-29T15:56:11.261Z,2.53
2023-03-29T15:58:38.351Z,1.75
2023-03-29T16:01:11.925Z,2.30
2023-03-29T16:03:40.056Z,2.10
2023-03-29T16:06:11.422Z,2.38
2023-03-29T16:08:38.274Z,2.10
2023-03-29T16:11:06.791Z,2.25
2023-03-29T16:13:33.697Z,2.35
2023-03-29T16:16:00.637Z,2.60
2023-03-29T16:18:27.619Z,2.40
2023-03-29T16:20:54.788Z,2.88
2023-03-29T16:23:21.708Z,2.33
2023-03-29T16:25:48.626Z,2.28
2023-03-29T16:28:15.541Z,3.03
2023-03-29T16:30:42.617Z,2.35
2023-03-29T16:33:09.555Z,2.30
2023-03-29T16:35:40.042Z,3.00
2023-03-29T16:38:07.572Z,2.00
2023-03-29T16:40:35.023Z,3.60
2023-03-29T16:43:02.744Z,2.45
2023-03-29T16:45:29.717Z,2.13
2023-03-29T16:47:57.228Z,2.45
2023-03-29T16:50:24.355Z,2.47
2023-03-29T16:52:54.408Z,2.67
2023-03-29T16:55:21.408Z,2.15
2023-03-29T16:57:50.937Z,1.77
2023-03-29T17:00:19.834Z,2.40
2023-03-29T17:02:49.779Z,1.73
2023-03-29T17:05:18.625Z,2.33
2023-03-29T17:07:46.213Z,2.50
2023-03-29T17:10:13.823Z,2.22
2023-03-29T17:12:40.677Z,2.22
2023-03-29T17:15:08.263Z,1.90
2023-03-29T17:17:37.419Z,1.88
2023-03-29T17:20:08.627Z,2.35
2023-03-29T17:22:36.202Z,2.00
2023-03-29T17:25:03.853Z,2.13
2023-03-29T17:27:30.894Z,1.88
2023-03-29T17:29:57.761Z,1.80
2023-03-29T17:32:24.881Z,1.58
2023-03-29T17:34:53.068Z,1.85
2023-03-29T17:37:21.345Z,1.60
2023-03-29T17:39:48.413Z,1.67
2023-03-29T17:42:16.190Z,1.63
2023-03-29T17:44:43.548Z,1.67
2023-03-29T17:47:10.583Z,1.55
2023-03-29T17:49:37.512Z,1.70
2023-03-29T17:52:04.446Z,1.58
2023-03-29T17:54:31.269Z,1.70
2023-03-29T17:59:25.640Z,1.65
2023-03-29T18:01:52.641Z,1.83
2023-03-29T18:04:19.514Z,2.30
2023-03-29T18:09:13.364Z,2.20
2023-03-29T18:11:40.243Z,1.90
